»·PEaware :: AAL211 KPSP-KLAS

AAL211 :: KPSP-KLAS

FLIGHT INFORMATION

Flight Status: Arrived
Operator:
American Airlines
More flights by this operator :: More flights under this callsign
Pilot: Robert McDonald (1649)
Aircraft: BOEING 737-800
(B738)
More flights by this aircraft type
Origin: KPSP Palm Springs Intl
United States
Destination: KLAS McCarran Intl
United States
More flights between these airports :: More routes between these airports
Route: +CATH1 PSP V370 TNP KEPEC4
File this flight plan on PilotEdge
Remarks:
Altitude:
(Current/Filed)
25,000ft
Speed:
(Current/Filed)
450kts
Departed: 17-Jun-17 05:41 PM
Arrived: 17-Jun-17 06:21 PM
Distance/Time
Traveled:
151nm/0:40
Distance/Time
To Go:
Arrived

Flight Plot

Page will automatically refresh every two minutes.

Flight plan parsing failed; only flown route is shown


Map Options




Map Legend


Flown Route
Filed Route
Departure Airport
Arrival Airport
Navaid (VOR, NDB)
Fix

Horizontal Profiles

Position Reports

Time Latitude Longitude Heading Altitude Ground
Speed
17-Jun-17 17:36 33.823828 -116.506542 205 486ft 0kts
17-Jun-17 17:37 33.823828 -116.506542 205 486ft 0kts
17-Jun-17 17:38 33.824080 -116.506396 204 486ft 2kts
17-Jun-17 17:39 33.824148 -116.506364 187 486ft 0kts
17-Jun-17 17:40 33.824147 -116.506364 187 486ft 0kts
17-Jun-17 17:41 33.823736 -116.506031 119 486ft 0kts
17-Jun-17 17:42 33.822243 -116.502961 146 486ft 18kts
17-Jun-17 17:43 33.818751 -116.499837 142 486ft 0kts
17-Jun-17 17:44 33.821452 -116.500383 322 486ft 81kts
17-Jun-17 17:45 33.859870 -116.534720 321 3236ft 209kts
17-Jun-17 17:46 33.911322 -116.524458 74 6224ft 239kts
17-Jun-17 17:47 33.886351 -116.453557 128 9194ft 241kts
17-Jun-17 17:48 33.849818 -116.384867 116 12285ft 248kts
17-Jun-17 17:49 33.820199 -116.309560 91 12995ft 247kts
17-Jun-17 17:50 33.852767 -116.232665 54 14090ft 293kts
17-Jun-17 17:51 33.903484 -116.142778 55 16211ft 357kts
17-Jun-17 17:52 33.963366 -116.035962 55 18525ft 400kts
17-Jun-17 17:53 34.027052 -115.922248 56 21261ft 417kts
17-Jun-17 17:54 34.092897 -115.804526 56 23583ft 430kts
17-Jun-17 17:55 34.174984 -115.697534 40 24809ft 443kts
17-Jun-17 17:56 34.266074 -115.596965 43 24836ft 442kts
17-Jun-17 17:57 34.365564 -115.511849 23 24852ft 445kts
17-Jun-17 17:58 34.482151 -115.461166 20 24840ft 445kts
17-Jun-17 17:59 34.599237 -115.410147 21 24827ft 445kts
17-Jun-17 18:00 34.715759 -115.359291 20 24816ft 445kts
17-Jun-17 18:01 34.836207 -115.351199 346 23832ft 446kts
17-Jun-17 18:02 34.956424 -115.397403 343 23797ft 455kts
17-Jun-17 18:03 35.074161 -115.444045 343 22065ft 435kts
17-Jun-17 18:04 35.186455 -115.487976 343 19482ft 405kts
17-Jun-17 18:04 35.270842 -115.521212 341 17257ft 359kts
17-Jun-17 18:05 35.332411 -115.604844 302 15617ft 317kts
17-Jun-17 18:06 35.385718 -115.684891 344 13181ft 299kts
17-Jun-17 18:07 35.473177 -115.699321 357 13096ft 344kts
17-Jun-17 18:09 35.586475 -115.693004 7 13002ft 340kts
17-Jun-17 18:10 35.671471 -115.677838 23 12995ft 290kts
17-Jun-17 18:11 35.730803 -115.609745 46 13019ft 293kts
17-Jun-17 18:12 35.803147 -115.572462 2 13027ft 295kts
17-Jun-17 18:13 35.885391 -115.568444 3 12997ft 299kts
17-Jun-17 18:13 35.954307 -115.560193 25 13013ft 299kts
17-Jun-17 18:14 35.999358 -115.476489 68 11995ft 300kts
17-Jun-17 18:15 36.028750 -115.382107 72 11051ft 285kts
17-Jun-17 18:16 36.024773 -115.286116 95 9983ft 279kts
17-Jun-17 18:17 36.017661 -115.190536 95 8710ft 282kts
17-Jun-17 18:18 36.010038 -115.097392 94 6467ft 238kts
17-Jun-17 18:19 36.020398 -115.030191 9 4118ft 191kts
17-Jun-17 18:20 36.067683 -115.035080 303 2706ft 149kts
17-Jun-17 18:21 36.075975 -115.089970 271 2467ft 188kts
17-Jun-17 18:22 36.073681 -115.145646 270 2124ft 49kts
17-Jun-17 18:23 36.074408 -115.149702 299 2124ft 0kts
17-Jun-17 18:24 36.077859 -115.152825 333 2124ft 21kts
17-Jun-17 18:25 36.078608 -115.148070 72 2124ft 14kts
17-Jun-17 18:26 36.079790 -115.147176 64 2124ft 0kts

Navigation Log

Ident Type
Flight plan parsing failed, navigation log unavailable